METAR AND TAF INFORMATION
METAR FOR LUKK
ADDS - METARS form results

(1650 UTC 05 August 2020)
Data provider http://aviationweather.gov/metar/data/
 
METAR text: LUKK 051630Z 19005KT 160V220 CAVOK 31/08 Q1015 R09/D NOSIG
Conditions at: LUKK (CHISINAU INTL , MD) observed 1630 UTC 05 August 2020
Temperature: 31.0°C (88°F)
Dewpoint: 8.0°C (46°F) [RH = 24%]
Pressure (altimeter): 29.97 inches Hg (1015.0 mb)
Winds: from the S (190 degrees) at 6 MPH (5 knots; 2.6 m/s)
Visibility: 6 or more miles (10+ km)
Ceiling: ceiling and visibility are OK
Clouds: unknown
Weather: no significant weather observed at this time

METAR text: LUKK 051600Z 15007KT 120V180 CAVOK 32/07 Q1014 R09/D NOSIG
Conditions at: LUKK (CHISINAU INTL , MD) observed 1600 UTC 05 August 2020
Temperature: 32.0°C (90°F)
Dewpoint: 7.0°C (45°F) [RH = 21%]
Pressure (altimeter): 29.94 inches Hg (1014.0 mb)
Winds: from the SSE (150 degrees) at 8 MPH (7 knots; 3.6 m/s)
Visibility: 6 or more miles (10+ km)
Ceiling: ceiling and visibility are OK
Clouds: unknown
Weather: no significant weather observed at this time

Forecast for: LUKK (CHISINAU INTL , MD)
Text: TAF LUKK 051120Z 0512/0612 10010KT CAVOK
Forecast period: 1200 to 1600 UTC 05 August 2020
Forecast type: FROM: standard forecast or significant change
Winds: from the E (100 degrees) at 12 MPH (10 knots; 5.1 m/s)
Visibility: 6 or more miles (10+ km)
Ceiling: unknown
Clouds: missing
Weather: NSW  (no significant weather)
Text: BECMG 0516/0518 VRB04KT
Forecast period: 1600 UTC 05 August 2020 to 0600 UTC 06 August 2020
Forecast type: BECOMING: Conditions expected to become as follows by 1800 UTC 05 August 2020
Winds: variable direction winds at 5 MPH (4 knots; 2.1 m/s)
Visibility: 6 or more miles (10+ km)
Ceiling: unknown
Clouds: missing
Weather: NSW  (no significant weather)
Text: BECMG 0606/0608 06010KT
Forecast period: 0600 to 1200 UTC 06 August 2020
Forecast type: BECOMING: Conditions expected to become as follows by 0800 UTC 06 August 2020
Winds: from the ENE (60 degrees) at 12 MPH (10 knots; 5.1 m/s)
Visibility: 6 or more miles (10+ km)
Ceiling: unknown
Clouds: missing
Weather: NSW  (no significant weather)

 AIRPORT MAP

 RUNWAY INFORMATION
Runway 08 Runway length 11779 ft Runway width 145 ft
Runway elevation 399 ft Runway displaced threshold 0 ft Runway heading 88
Runway 26 Runway length 11779 ft Runway width 145 ft
Runway elevation 279 ft Runway displaced threshold 0 ft Runway heading 268

 AIRPORT FREQUENCIES
Type APP Name APP Frequency 125.9 MHZ
Type ATIS Name ATIS Frequency 133.7 MHZ
Type GND Name GND Frequency 121.8 MHZ
Type TWR Name TWR Frequency 118.1 MHZ

 AIRPORT NEAR NAVIGATION AIDS
Type VOR-DME Name Chisinau Frequency 113700 KHZ



Powered by Virtual Airlines Manager [v2.6.2]